sensor_id;sensor_type;location;lat;lon;timestamp;P1;durP1;ratioP1;P2;durP2;ratioP2
57441;SDS011;43284;47.042;15.498;2022-07-21T00:02:09;2.80;;;2.10;;
57441;SDS011;43284;47.042;15.498;2022-07-21T00:04:36;4.90;;;1.77;;
57441;SDS011;43284;47.042;15.498;2022-07-21T00:07:03;4.78;;;1.80;;
57441;SDS011;43284;47.042;15.498;2022-07-21T00:09:30;2.65;;;1.98;;
57441;SDS011;43284;47.042;15.498;2022-07-21T00:11:57;8.30;;;1.95;;
57441;SDS011;43284;47.042;15.498;2022-07-21T00:14:24;4.00;;;1.88;;
57441;SDS011;43284;47.042;15.498;2022-07-21T00:16:52;2.47;;;1.80;;
57441;SDS011;43284;47.042;15.498;2022-07-21T00:19:20;2.40;;;2.00;;
57441;SDS011;43284;47.042;15.498;2022-07-21T00:21:47;3.17;;;2.22;;
57441;SDS011;43284;47.042;15.498;2022-07-21T00:24:15;3.15;;;1.92;;
57441;SDS011;43284;47.042;15.498;2022-07-21T00:26:42;2.80;;;1.90;;
57441;SDS011;43284;47.042;15.498;2022-07-21T00:29:11;2.92;;;1.88;;
57441;SDS011;43284;47.042;15.498;2022-07-21T00:31:39;3.53;;;2.05;;
57441;SDS011;43284;47.042;15.498;2022-07-21T00:34:05;3.35;;;2.15;;
57441;SDS011;43284;47.042;15.498;2022-07-21T00:36:33;4.68;;;2.33;;
57441;SDS011;43284;47.042;15.498;2022-07-21T00:39:00;3.78;;;1.95;;
57441;SDS011;43284;47.042;15.498;2022-07-21T00:41:27;6.38;;;2.35;;
57441;SDS011;43284;47.042;15.498;2022-07-21T00:43:53;3.35;;;2.30;;
57441;SDS011;43284;47.042;15.498;2022-07-21T00:46:21;4.20;;;2.22;;
57441;SDS011;43284;47.042;15.498;2022-07-21T00:48:49;2.08;;;1.75;;
57441;SDS011;43284;47.042;15.498;2022-07-21T00:51:16;3.63;;;2.38;;
57441;SDS011;43284;47.042;15.498;2022-07-21T00:53:43;5.70;;;2.65;;
57441;SDS011;43284;47.042;15.498;2022-07-21T00:56:11;4.35;;;2.20;;
57441;SDS011;43284;47.042;15.498;2022-07-21T00:58:39;2.22;;;2.03;;
57441;SDS011;43284;47.042;15.498;2022-07-21T01:01:06;3.33;;;2.00;;
57441;SDS011;43284;47.042;15.498;2022-07-21T01:03:34;2.53;;;1.83;;
57441;SDS011;43284;47.042;15.498;2022-07-21T01:06:01;4.78;;;2.08;;
57441;SDS011;43284;47.042;15.498;2022-07-21T01:08:28;3.80;;;2.28;;
57441;SDS011;43284;47.042;15.498;2022-07-21T01:10:57;2.58;;;1.80;;
57441;SDS011;43284;47.042;15.498;2022-07-21T01:13:24;5.35;;;2.10;;
57441;SDS011;43284;47.042;15.498;2022-07-21T01:15:51;2.60;;;2.20;;
57441;SDS011;43284;47.042;15.498;2022-07-21T01:18:18;2.92;;;2.38;;
57441;SDS011;43284;47.042;15.498;2022-07-21T01:20:49;5.75;;;2.55;;
57441;SDS011;43284;47.042;15.498;2022-07-21T01:23:20;4.25;;;2.35;;
57441;SDS011;43284;47.042;15.498;2022-07-21T01:25:48;3.42;;;2.00;;
57441;SDS011;43284;47.042;15.498;2022-07-21T01:28:16;3.17;;;2.28;;
57441;SDS011;43284;47.042;15.498;2022-07-21T01:30:43;4.93;;;2.30;;
57441;SDS011;43284;47.042;15.498;2022-07-21T01:33:10;4.45;;;2.33;;
57441;SDS011;43284;47.042;15.498;2022-07-21T01:35:38;3.58;;;2.00;;
57441;SDS011;43284;47.042;15.498;2022-07-21T01:38:05;6.70;;;2.50;;
57441;SDS011;43284;47.042;15.498;2022-07-21T01:40:58;3.53;;;2.00;;
57441;SDS011;43284;47.042;15.498;2022-07-21T01:43:44;3.50;;;2.50;;
57441;SDS011;43284;47.042;15.498;2022-07-21T01:46:12;5.63;;;2.35;;
57441;SDS011;43284;47.042;15.498;2022-07-21T01:48:43;2.95;;;2.15;;
57441;SDS011;43284;47.042;15.498;2022-07-21T01:51:11;2.38;;;2.17;;
57441;SDS011;43284;47.042;15.498;2022-07-21T01:53:38;8.18;;;2.33;;
57441;SDS011;43284;47.042;15.498;2022-07-21T01:56:06;2.95;;;2.30;;
57441;SDS011;43284;47.042;15.498;2022-07-21T01:58:33;4.10;;;2.25;;
57441;SDS011;43284;47.042;15.498;2022-07-21T02:01:01;4.55;;;2.05;;
57441;SDS011;43284;47.042;15.498;2022-07-21T02:03:28;5.53;;;2.70;;
57441;SDS011;43284;47.042;15.498;2022-07-21T02:06:02;3.03;;;2.25;;
57441;SDS011;43284;47.042;15.498;2022-07-21T02:08:30;6.60;;;2.53;;
57441;SDS011;43284;47.042;15.498;2022-07-21T02:10:57;3.05;;;2.28;;
57441;SDS011;43284;47.042;15.498;2022-07-21T02:13:24;3.97;;;2.47;;
57441;SDS011;43284;47.042;15.498;2022-07-21T02:15:52;5.35;;;2.58;;
57441;SDS011;43284;47.042;15.498;2022-07-21T02:18:19;3.20;;;2.50;;
57441;SDS011;43284;47.042;15.498;2022-07-21T02:20:45;3.65;;;2.42;;
57441;SDS011;43284;47.042;15.498;2022-07-21T02:23:17;3.53;;;2.38;;
57441;SDS011;43284;47.042;15.498;2022-07-21T02:25:45;3.17;;;2.20;;
57441;SDS011;43284;47.042;15.498;2022-07-21T02:28:13;3.13;;;2.60;;
57441;SDS011;43284;47.042;15.498;2022-07-21T02:30:40;2.67;;;2.40;;
57441;SDS011;43284;47.042;15.498;2022-07-21T02:33:08;3.13;;;2.20;;
57441;SDS011;43284;47.042;15.498;2022-07-21T02:35:35;3.63;;;2.88;;
57441;SDS011;43284;47.042;15.498;2022-07-21T02:38:02;5.80;;;2.38;;
57441;SDS011;43284;47.042;15.498;2022-07-21T02:40:30;4.75;;;2.38;;
57441;SDS011;43284;47.042;15.498;2022-07-21T02:42:57;4.10;;;2.20;;
57441;SDS011;43284;47.042;15.498;2022-07-21T02:45:25;3.58;;;2.63;;
57441;SDS011;43284;47.042;15.498;2022-07-21T02:47:53;3.75;;;2.40;;
57441;SDS011;43284;47.042;15.498;2022-07-21T02:50:24;4.82;;;3.17;;
57441;SDS011;43284;47.042;15.498;2022-07-21T02:52:57;3.97;;;2.72;;
57441;SDS011;43284;47.042;15.498;2022-07-21T02:55:26;3.97;;;3.13;;
57441;SDS011;43284;47.042;15.498;2022-07-21T03:00:41;8.32;;;2.60;;
57441;SDS011;43284;47.042;15.498;2022-07-21T03:03:12;3.35;;;2.50;;
57441;SDS011;43284;47.042;15.498;2022-07-21T03:05:39;9.50;;;3.85;;
57441;SDS011;43284;47.042;15.498;2022-07-21T03:08:07;4.55;;;2.90;;
57441;SDS011;43284;47.042;15.498;2022-07-21T03:10:34;4.18;;;2.63;;
57441;SDS011;43284;47.042;15.498;2022-07-21T03:13:03;6.30;;;2.67;;
57441;SDS011;43284;47.042;15.498;2022-07-21T03:15:31;5.00;;;2.60;;
57441;SDS011;43284;47.042;15.498;2022-07-21T03:17:59;4.85;;;2.42;;
57441;SDS011;43284;47.042;15.498;2022-07-21T03:20:29;7.30;;;3.00;;
57441;SDS011;43284;47.042;15.498;2022-07-21T03:23:00;6.63;;;3.23;;
57441;SDS011;43284;47.042;15.498;2022-07-21T03:25:27;5.72;;;2.95;;
57441;SDS011;43284;47.042;15.498;2022-07-21T03:27:55;5.30;;;3.15;;
57441;SDS011;43284;47.042;15.498;2022-07-21T03:30:24;4.03;;;2.80;;
57441;SDS011;43284;47.042;15.498;2022-07-21T03:32:55;6.57;;;3.08;;
57441;SDS011;43284;47.042;15.498;2022-07-21T03:35:22;3.50;;;2.45;;
57441;SDS011;43284;47.042;15.498;2022-07-21T03:37:54;6.07;;;2.90;;
57441;SDS011;43284;47.042;15.498;2022-07-21T03:40:23;3.55;;;2.92;;
57441;SDS011;43284;47.042;15.498;2022-07-21T03:42:53;6.82;;;2.85;;
57441;SDS011;43284;47.042;15.498;2022-07-21T03:45:22;3.85;;;2.58;;
57441;SDS011;43284;47.042;15.498;2022-07-21T03:47:52;4.03;;;2.67;;
57441;SDS011;43284;47.042;15.498;2022-07-21T03:50:20;4.10;;;2.72;;
57441;SDS011;43284;47.042;15.498;2022-07-21T03:52:47;5.95;;;2.85;;
57441;SDS011;43284;47.042;15.498;2022-07-21T03:55:14;6.55;;;2.72;;
57441;SDS011;43284;47.042;15.498;2022-07-21T03:57:47;5.22;;;2.60;;
57441;SDS011;43284;47.042;15.498;2022-07-21T04:00:29;5.47;;;2.72;;
57441;SDS011;43284;47.042;15.498;2022-07-21T04:03:02;3.95;;;3.13;;
57441;SDS011;43284;47.042;15.498;2022-07-21T04:05:30;5.40;;;2.70;;
57441;SDS011;43284;47.042;15.498;2022-07-21T04:07:58;3.75;;;2.90;;
57441;SDS011;43284;47.042;15.498;2022-07-21T04:10:28;3.03;;;2.70;;
57441;SDS011;43284;47.042;15.498;2022-07-21T04:12:58;6.97;;;3.00;;
57441;SDS011;43284;47.042;15.498;2022-07-21T04:15:27;3.60;;;2.88;;
57441;SDS011;43284;47.042;15.498;2022-07-21T04:17:54;4.07;;;2.70;;
57441;SDS011;43284;47.042;15.498;2022-07-21T04:20:22;5.40;;;3.00;;
57441;SDS011;43284;47.042;15.498;2022-07-21T04:22:50;6.60;;;3.25;;
57441;SDS011;43284;47.042;15.498;2022-07-21T04:25:18;6.28;;;3.47;;
57441;SDS011;43284;47.042;15.498;2022-07-21T04:27:47;7.82;;;2.70;;
57441;SDS011;43284;47.042;15.498;2022-07-21T04:30:16;3.60;;;3.10;;
57441;SDS011;43284;47.042;15.498;2022-07-21T04:32:46;6.03;;;3.38;;
57441;SDS011;43284;47.042;15.498;2022-07-21T04:35:14;4.65;;;2.88;;
57441;SDS011;43284;47.042;15.498;2022-07-21T04:37:43;5.00;;;3.10;;
57441;SDS011;43284;47.042;15.498;2022-07-21T04:40:12;7.75;;;3.08;;
57441;SDS011;43284;47.042;15.498;2022-07-21T04:42:41;4.85;;;3.30;;
57441;SDS011;43284;47.042;15.498;2022-07-21T04:45:10;4.78;;;2.70;;
57441;SDS011;43284;47.042;15.498;2022-07-21T04:47:46;3.95;;;2.97;;
57441;SDS011;43284;47.042;15.498;2022-07-21T04:50:20;5.88;;;2.97;;
57441;SDS011;43284;47.042;15.498;2022-07-21T04:52:49;4.82;;;3.60;;
57441;SDS011;43284;47.042;15.498;2022-07-21T04:55:17;4.40;;;2.60;;
57441;SDS011;43284;47.042;15.498;2022-07-21T04:57:46;5.22;;;3.05;;
57441;SDS011;43284;47.042;15.498;2022-07-21T05:00:15;7.30;;;3.20;;
57441;SDS011;43284;47.042;15.498;2022-07-21T05:02:48;5.05;;;2.88;;
57441;SDS011;43284;47.042;15.498;2022-07-21T05:05:15;5.80;;;2.92;;
57441;SDS011;43284;47.042;15.498;2022-07-21T05:07:43;6.70;;;2.70;;
57441;SDS011;43284;47.042;15.498;2022-07-21T05:10:14;4.32;;;3.20;;
57441;SDS011;43284;47.042;15.498;2022-07-21T05:12:44;6.68;;;3.28;;
57441;SDS011;43284;47.042;15.498;2022-07-21T05:15:12;3.83;;;2.95;;
57441;SDS011;43284;47.042;15.498;2022-07-21T05:17:41;2.88;;;2.42;;
57441;SDS011;43284;47.042;15.498;2022-07-21T05:20:10;5.00;;;3.25;;
57441;SDS011;43284;47.042;15.498;2022-07-21T05:22:38;4.43;;;3.10;;
57441;SDS011;43284;47.042;15.498;2022-07-21T05:25:06;7.55;;;3.75;;
57441;SDS011;43284;47.042;15.498;2022-07-21T05:27:34;10.15;;;3.40;;
57441;SDS011;43284;47.042;15.498;2022-07-21T05:30:02;4.00;;;2.97;;
57441;SDS011;43284;47.042;15.498;2022-07-21T05:32:31;6.30;;;2.88;;
57441;SDS011;43284;47.042;15.498;2022-07-21T05:34:59;7.28;;;3.75;;
57441;SDS011;43284;47.042;15.498;2022-07-21T05:37:26;3.80;;;3.05;;
57441;SDS011;43284;47.042;15.498;2022-07-21T05:39:54;7.28;;;3.50;;
57441;SDS011;43284;47.042;15.498;2022-07-21T05:42:22;9.82;;;3.38;;
57441;SDS011;43284;47.042;15.498;2022-07-21T05:44:51;9.13;;;3.78;;
57441;SDS011;43284;47.042;15.498;2022-07-21T05:47:21;4.72;;;3.20;;
57441;SDS011;43284;47.042;15.498;2022-07-21T05:49:49;7.18;;;2.92;;
57441;SDS011;43284;47.042;15.498;2022-07-21T05:52:17;8.25;;;3.35;;
57441;SDS011;43284;47.042;15.498;2022-07-21T05:54:45;4.93;;;3.15;;
57441;SDS011;43284;47.042;15.498;2022-07-21T05:57:12;7.40;;;3.35;;
57441;SDS011;43284;47.042;15.498;2022-07-21T05:59:40;8.85;;;2.90;;
57441;SDS011;43284;47.042;15.498;2022-07-21T06:02:09;4.47;;;2.85;;
57441;SDS011;43284;47.042;15.498;2022-07-21T06:04:37;7.13;;;2.88;;
57441;SDS011;43284;47.042;15.498;2022-07-21T06:07:04;8.23;;;3.10;;
57441;SDS011;43284;47.042;15.498;2022-07-21T06:09:32;4.90;;;3.17;;
57441;SDS011;43284;47.042;15.498;2022-07-21T06:12:01;6.30;;;3.08;;
57441;SDS011;43284;47.042;15.498;2022-07-21T06:14:28;5.70;;;3.00;;
57441;SDS011;43284;47.042;15.498;2022-07-21T06:16:56;4.22;;;3.10;;
57441;SDS011;43284;47.042;15.498;2022-07-21T06:19:24;6.60;;;3.30;;
57441;SDS011;43284;47.042;15.498;2022-07-21T06:21:51;5.80;;;3.05;;
57441;SDS011;43284;47.042;15.498;2022-07-21T06:24:19;9.52;;;2.97;;
57441;SDS011;43284;47.042;15.498;2022-07-21T06:26:48;5.78;;;3.28;;
57441;SDS011;43284;47.042;15.498;2022-07-21T06:29:15;4.47;;;2.75;;
57441;SDS011;43284;47.042;15.498;2022-07-21T06:31:44;9.65;;;3.05;;
57441;SDS011;43284;47.042;15.498;2022-07-21T06:34:13;8.65;;;2.83;;
57441;SDS011;43284;47.042;15.498;2022-07-21T06:36:42;8.88;;;3.05;;
57441;SDS011;43284;47.042;15.498;2022-07-21T06:39:10;5.80;;;3.00;;
57441;SDS011;43284;47.042;15.498;2022-07-21T06:41:39;10.13;;;3.22;;
57441;SDS011;43284;47.042;15.498;2022-07-21T06:44:06;6.38;;;2.90;;
57441;SDS011;43284;47.042;15.498;2022-07-21T06:46:34;4.88;;;3.13;;
57441;SDS011;43284;47.042;15.498;2022-07-21T06:49:02;19.02;;;3.33;;
57441;SDS011;43284;47.042;15.498;2022-07-21T06:51:30;7.15;;;3.25;;
57441;SDS011;43284;47.042;15.498;2022-07-21T06:53:57;6.72;;;3.28;;
57441;SDS011;43284;47.042;15.498;2022-07-21T06:56:26;18.65;;;3.75;;
57441;SDS011;43284;47.042;15.498;2022-07-21T06:58:57;11.15;;;3.30;;
57441;SDS011;43284;47.042;15.498;2022-07-21T07:01:24;10.13;;;3.08;;
57441;SDS011;43284;47.042;15.498;2022-07-21T07:03:51;14.32;;;3.50;;
57441;SDS011;43284;47.042;15.498;2022-07-21T07:06:18;6.00;;;2.95;;
57441;SDS011;43284;47.042;15.498;2022-07-21T07:08:47;8.10;;;3.20;;
57441;SDS011;43284;47.042;15.498;2022-07-21T07:11:14;6.82;;;3.13;;
57441;SDS011;43284;47.042;15.498;2022-07-21T07:13:41;7.00;;;3.33;;
57441;SDS011;43284;47.042;15.498;2022-07-21T07:16:08;4.25;;;3.13;;
57441;SDS011;43284;47.042;15.498;2022-07-21T07:18:36;6.43;;;2.95;;
57441;SDS011;43284;47.042;15.498;2022-07-21T07:21:04;6.13;;;3.15;;
57441;SDS011;43284;47.042;15.498;2022-07-21T07:23:32;4.63;;;2.88;;
57441;SDS011;43284;47.042;15.498;2022-07-21T07:26:00;7.03;;;2.78;;
57441;SDS011;43284;47.042;15.498;2022-07-21T07:28:30;7.63;;;2.88;;
57441;SDS011;43284;47.042;15.498;2022-07-21T07:30:59;7.97;;;3.13;;
57441;SDS011;43284;47.042;15.498;2022-07-21T07:33:29;5.45;;;3.05;;
57441;SDS011;43284;47.042;15.498;2022-07-21T07:35:57;4.53;;;3.00;;
57441;SDS011;43284;47.042;15.498;2022-07-21T07:38:24;6.18;;;2.63;;
57441;SDS011;43284;47.042;15.498;2022-07-21T07:40:52;5.15;;;2.50;;
57441;SDS011;43284;47.042;15.498;2022-07-21T07:43:20;6.80;;;2.85;;
57441;SDS011;43284;47.042;15.498;2022-07-21T07:45:49;4.72;;;2.30;;
57441;SDS011;43284;47.042;15.498;2022-07-21T07:48:17;9.48;;;3.35;;
57441;SDS011;43284;47.042;15.498;2022-07-21T07:50:44;4.65;;;2.80;;
57441;SDS011;43284;47.042;15.498;2022-07-21T07:53:12;5.18;;;2.70;;
57441;SDS011;43284;47.042;15.498;2022-07-21T07:55:40;6.28;;;2.97;;
57441;SDS011;43284;47.042;15.498;2022-07-21T07:58:10;8.68;;;3.08;;
57441;SDS011;43284;47.042;15.498;2022-07-21T08:00:38;10.18;;;2.75;;
57441;SDS011;43284;47.042;15.498;2022-07-21T08:03:07;5.90;;;2.92;;
57441;SDS011;43284;47.042;15.498;2022-07-21T08:05:34;8.07;;;2.90;;
57441;SDS011;43284;47.042;15.498;2022-07-21T08:08:01;8.05;;;3.47;;
57441;SDS011;43284;47.042;15.498;2022-07-21T08:10:29;6.25;;;3.08;;
57441;SDS011;43284;47.042;15.498;2022-07-21T08:12:57;7.15;;;3.22;;
57441;SDS011;43284;47.042;15.498;2022-07-21T08:15:24;8.35;;;2.63;;
57441;SDS011;43284;47.042;15.498;2022-07-21T08:17:52;8.50;;;2.83;;
57441;SDS011;43284;47.042;15.498;2022-07-21T08:20:19;7.53;;;3.08;;
57441;SDS011;43284;47.042;15.498;2022-07-21T08:22:47;8.50;;;3.47;;
57441;SDS011;43284;47.042;15.498;2022-07-21T08:25:15;15.27;;;4.10;;
57441;SDS011;43284;47.042;15.498;2022-07-21T08:27:42;11.27;;;3.80;;
57441;SDS011;43284;47.042;15.498;2022-07-21T08:30:10;7.00;;;3.40;;
57441;SDS011;43284;47.042;15.498;2022-07-21T08:32:39;6.63;;;3.40;;
57441;SDS011;43284;47.042;15.498;2022-07-21T08:35:13;11.77;;;3.90;;
57441;SDS011;43284;47.042;15.498;2022-07-21T08:37:40;5.95;;;2.92;;
57441;SDS011;43284;47.042;15.498;2022-07-21T08:40:09;9.27;;;3.33;;
57441;SDS011;43284;47.042;15.498;2022-07-21T08:42:37;9.65;;;3.65;;
57441;SDS011;43284;47.042;15.498;2022-07-21T08:45:05;12.05;;;3.40;;
57441;SDS011;43284;47.042;15.498;2022-07-21T08:47:32;8.13;;;3.53;;
57441;SDS011;43284;47.042;15.498;2022-07-21T08:50:03;7.85;;;2.95;;
57441;SDS011;43284;47.042;15.498;2022-07-21T08:52:33;7.10;;;3.17;;
57441;SDS011;43284;47.042;15.498;2022-07-21T08:55:02;7.47;;;2.90;;
57441;SDS011;43284;47.042;15.498;2022-07-21T08:57:32;10.57;;;3.03;;
57441;SDS011;43284;47.042;15.498;2022-07-21T09:00:00;7.25;;;3.05;;
57441;SDS011;43284;47.042;15.498;2022-07-21T09:02:30;6.05;;;3.03;;
57441;SDS011;43284;47.042;15.498;2022-07-21T09:05:01;5.63;;;3.35;;
57441;SDS011;43284;47.042;15.498;2022-07-21T09:07:40;7.95;;;3.08;;
57441;SDS011;43284;47.042;15.498;2022-07-21T09:12:54;7.35;;;2.92;;
57441;SDS011;43284;47.042;15.498;2022-07-21T09:15:25;9.73;;;3.90;;
57441;SDS011;43284;47.042;15.498;2022-07-21T09:18:05;6.25;;;2.83;;
57441;SDS011;43284;47.042;15.498;2022-07-21T09:20:48;3.85;;;2.75;;
57441;SDS011;43284;47.042;15.498;2022-07-21T09:23:18;5.95;;;2.60;;
57441;SDS011;43284;47.042;15.498;2022-07-21T09:25:48;5.05;;;2.67;;
57441;SDS011;43284;47.042;15.498;2022-07-21T09:28:20;8.68;;;3.30;;
57441;SDS011;43284;47.042;15.498;2022-07-21T09:31:04;5.55;;;2.75;;
57441;SDS011;43284;47.042;15.498;2022-07-21T09:36:14;5.35;;;2.60;;
57441;SDS011;43284;47.042;15.498;2022-07-21T09:41:22;4.90;;;3.10;;
57441;SDS011;43284;47.042;15.498;2022-07-21T09:43:56;5.22;;;2.80;;
57441;SDS011;43284;47.042;15.498;2022-07-21T09:46:25;3.67;;;2.33;;
57441;SDS011;43284;47.042;15.498;2022-07-21T09:48:57;7.13;;;2.60;;
57441;SDS011;43284;47.042;15.498;2022-07-21T09:54:00;6.57;;;2.63;;
57441;SDS011;43284;47.042;15.498;2022-07-21T09:56:33;6.57;;;2.55;;
57441;SDS011;43284;47.042;15.498;2022-07-21T09:59:07;3.55;;;2.70;;
57441;SDS011;43284;47.042;15.498;2022-07-21T10:01:36;4.95;;;2.75;;
57441;SDS011;43284;47.042;15.498;2022-07-21T10:04:06;6.75;;;2.38;;
57441;SDS011;43284;47.042;15.498;2022-07-21T10:06:40;5.43;;;2.53;;
57441;SDS011;43284;47.042;15.498;2022-07-21T10:09:08;7.25;;;2.60;;
57441;SDS011;43284;47.042;15.498;2022-07-21T10:11:38;6.78;;;2.60;;
57441;SDS011;43284;47.042;15.498;2022-07-21T10:14:13;5.30;;;2.47;;
57441;SDS011;43284;47.042;15.498;2022-07-21T10:16:40;6.97;;;2.60;;
57441;SDS011;43284;47.042;15.498;2022-07-21T10:19:19;5.88;;;2.75;;
57441;SDS011;43284;47.042;15.498;2022-07-21T10:22:02;8.40;;;3.03;;
57441;SDS011;43284;47.042;15.498;2022-07-21T10:24:35;4.00;;;2.47;;
57441;SDS011;43284;47.042;15.498;2022-07-21T10:27:05;3.25;;;2.20;;
57441;SDS011;43284;47.042;15.498;2022-07-21T10:32:23;2.35;;;2.05;;
57441;SDS011;43284;47.042;15.498;2022-07-21T10:34:53;6.15;;;2.15;;
57441;SDS011;43284;47.042;15.498;2022-07-21T10:45:33;4.53;;;2.17;;
57441;SDS011;43284;47.042;15.498;2022-07-21T10:48:06;4.88;;;2.13;;
57441;SDS011;43284;47.042;15.498;2022-07-21T10:50:57;2.33;;;1.92;;
57441;SDS011;43284;47.042;15.498;2022-07-21T10:53:33;4.93;;;2.50;;
57441;SDS011;43284;47.042;15.498;2022-07-21T10:56:25;2.35;;;1.90;;
57441;SDS011;43284;47.042;15.498;2022-07-21T10:58:55;5.07;;;1.85;;
57441;SDS011;43284;47.042;15.498;2022-07-21T11:01:23;4.97;;;2.10;;
57441;SDS011;43284;47.042;15.498;2022-07-21T11:06:38;9.23;;;2.30;;
57441;SDS011;43284;47.042;15.498;2022-07-21T11:09:09;6.80;;;2.25;;
57441;SDS011;43284;47.042;15.498;2022-07-21T11:12:00;5.53;;;2.17;;
57441;SDS011;43284;47.042;15.498;2022-07-21T11:17:04;3.50;;;1.70;;
57441;SDS011;43284;47.042;15.498;2022-07-21T11:22:23;2.33;;;1.80;;
57441;SDS011;43284;47.042;15.498;2022-07-21T11:24:56;6.03;;;2.50;;
57441;SDS011;43284;47.042;15.498;2022-07-21T11:27:26;3.53;;;2.10;;
57441;SDS011;43284;47.042;15.498;2022-07-21T11:30:05;6.97;;;2.10;;
57441;SDS011;43284;47.042;15.498;2022-07-21T11:32:34;3.35;;;2.28;;
57441;SDS011;43284;47.042;15.498;2022-07-21T11:35:08;4.93;;;1.80;;
57441;SDS011;43284;47.042;15.498;2022-07-21T11:37:40;2.92;;;2.00;;
57441;SDS011;43284;47.042;15.498;2022-07-21T11:40:11;4.13;;;1.92;;
57441;SDS011;43284;47.042;15.498;2022-07-21T11:42:41;6.85;;;2.42;;
57441;SDS011;43284;47.042;15.498;2022-07-21T11:45:11;6.03;;;2.10;;
57441;SDS011;43284;47.042;15.498;2022-07-21T11:47:39;4.90;;;2.10;;
57441;SDS011;43284;47.042;15.498;2022-07-21T11:50:08;3.75;;;1.92;;
57441;SDS011;43284;47.042;15.498;2022-07-21T11:52:38;2.97;;;1.77;;
57441;SDS011;43284;47.042;15.498;2022-07-21T11:55:08;3.97;;;1.92;;
57441;SDS011;43284;47.042;15.498;2022-07-21T11:57:42;6.50;;;2.47;;
57441;SDS011;43284;47.042;15.498;2022-07-21T12:00:15;2.20;;;1.70;;
57441;SDS011;43284;47.042;15.498;2022-07-21T12:02:43;2.38;;;1.85;;
57441;SDS011;43284;47.042;15.498;2022-07-21T12:05:11;2.45;;;1.90;;
57441;SDS011;43284;47.042;15.498;2022-07-21T12:07:45;5.97;;;2.03;;
57441;SDS011;43284;47.042;15.498;2022-07-21T12:10:21;4.03;;;1.90;;
57441;SDS011;43284;47.042;15.498;2022-07-21T12:12:59;3.88;;;1.88;;
57441;SDS011;43284;47.042;15.498;2022-07-21T12:15:29;4.97;;;2.10;;
57441;SDS011;43284;47.042;15.498;2022-07-21T12:18:00;3.38;;;1.95;;
57441;SDS011;43284;47.042;15.498;2022-07-21T12:20:41;3.63;;;2.00;;
57441;SDS011;43284;47.042;15.498;2022-07-21T12:23:23;2.72;;;1.90;;
57441;SDS011;43284;47.042;15.498;2022-07-21T12:25:53;3.63;;;2.13;;
57441;SDS011;43284;47.042;15.498;2022-07-21T12:28:40;4.65;;;1.75;;
57441;SDS011;43284;47.042;15.498;2022-07-21T12:31:22;4.88;;;1.65;;
57441;SDS011;43284;47.042;15.498;2022-07-21T12:33:51;6.82;;;2.08;;
57441;SDS011;43284;47.042;15.498;2022-07-21T12:36:22;3.92;;;1.83;;
57441;SDS011;43284;47.042;15.498;2022-07-21T12:38:52;2.75;;;1.90;;
57441;SDS011;43284;47.042;15.498;2022-07-21T12:41:20;1.90;;;1.70;;
57441;SDS011;43284;47.042;15.498;2022-07-21T12:43:55;5.13;;;1.80;;
57441;SDS011;43284;47.042;15.498;2022-07-21T12:46:32;2.90;;;1.67;;
57441;SDS011;43284;47.042;15.498;2022-07-21T12:49:06;5.63;;;2.40;;
57441;SDS011;43284;47.042;15.498;2022-07-21T12:51:35;4.70;;;2.15;;
57441;SDS011;43284;47.042;15.498;2022-07-21T12:54:03;5.18;;;1.92;;
57441;SDS011;43284;47.042;15.498;2022-07-21T12:56:32;5.43;;;1.80;;
57441;SDS011;43284;47.042;15.498;2022-07-21T12:59:01;2.58;;;2.33;;
57441;SDS011;43284;47.042;15.498;2022-07-21T13:01:31;4.03;;;2.20;;
57441;SDS011;43284;47.042;15.498;2022-07-21T13:04:01;4.50;;;2.38;;
57441;SDS011;43284;47.042;15.498;2022-07-21T13:06:29;3.92;;;2.17;;
57441;SDS011;43284;47.042;15.498;2022-07-21T13:08:57;2.40;;;1.90;;
57441;SDS011;43284;47.042;15.498;2022-07-21T13:11:29;2.83;;;1.77;;
57441;SDS011;43284;47.042;15.498;2022-07-21T13:14:00;6.15;;;1.60;;
57441;SDS011;43284;47.042;15.498;2022-07-21T13:16:30;3.05;;;2.00;;
57441;SDS011;43284;47.042;15.498;2022-07-21T13:18:59;7.20;;;2.25;;
57441;SDS011;43284;47.042;15.498;2022-07-21T13:21:32;4.80;;;2.00;;
57441;SDS011;43284;47.042;15.498;2022-07-21T13:24:00;2.30;;;2.03;;
57441;SDS011;43284;47.042;15.498;2022-07-21T13:26:28;5.18;;;2.13;;
57441;SDS011;43284;47.042;15.498;2022-07-21T13:28:57;2.72;;;1.85;;
57441;SDS011;43284;47.042;15.498;2022-07-21T13:31:27;3.47;;;2.00;;
57441;SDS011;43284;47.042;15.498;2022-07-21T13:33:55;4.47;;;2.00;;
57441;SDS011;43284;47.042;15.498;2022-07-21T13:36:26;5.72;;;2.20;;
57441;SDS011;43284;47.042;15.498;2022-07-21T13:38:55;4.10;;;2.28;;
57441;SDS011;43284;47.042;15.498;2022-07-21T13:41:27;3.28;;;1.90;;
57441;SDS011;43284;47.042;15.498;2022-07-21T13:43:56;4.30;;;2.10;;
57441;SDS011;43284;47.042;15.498;2022-07-21T13:46:25;5.03;;;2.03;;
57441;SDS011;43284;47.042;15.498;2022-07-21T13:48:57;4.65;;;2.15;;
57441;SDS011;43284;47.042;15.498;2022-07-21T13:51:26;4.00;;;2.03;;
57441;SDS011;43284;47.042;15.498;2022-07-21T13:53:59;9.65;;;2.30;;
57441;SDS011;43284;47.042;15.498;2022-07-21T13:56:26;3.63;;;2.00;;
57441;SDS011;43284;47.042;15.498;2022-07-21T13:58:54;5.03;;;1.90;;
57441;SDS011;43284;47.042;15.498;2022-07-21T14:01:24;2.63;;;1.95;;
57441;SDS011;43284;47.042;15.498;2022-07-21T14:03:51;3.42;;;2.08;;
57441;SDS011;43284;47.042;15.498;2022-07-21T14:06:19;2.25;;;2.00;;
57441;SDS011;43284;47.042;15.498;2022-07-21T14:08:46;2.47;;;1.83;;
57441;SDS011;43284;47.042;15.498;2022-07-21T14:11:14;2.50;;;1.70;;
57441;SDS011;43284;47.042;15.498;2022-07-21T14:13:42;4.50;;;1.80;;
57441;SDS011;43284;47.042;15.498;2022-07-21T14:16:11;4.18;;;1.98;;
57441;SDS011;43284;47.042;15.498;2022-07-21T14:18:39;1.88;;;1.63;;
57441;SDS011;43284;47.042;15.498;2022-07-21T14:21:07;3.28;;;1.90;;
57441;SDS011;43284;47.042;15.498;2022-07-21T14:23:39;5.22;;;1.70;;
57441;SDS011;43284;47.042;15.498;2022-07-21T14:26:07;2.75;;;1.77;;
57441;SDS011;43284;47.042;15.498;2022-07-21T14:28:36;5.65;;;1.70;;
57441;SDS011;43284;47.042;15.498;2022-07-21T14:31:03;2.60;;;1.83;;
57441;SDS011;43284;47.042;15.498;2022-07-21T14:33:37;3.22;;;1.85;;
57441;SDS011;43284;47.042;15.498;2022-07-21T14:36:05;2.60;;;1.92;;
57441;SDS011;43284;47.042;15.498;2022-07-21T14:38:33;2.17;;;1.70;;
57441;SDS011;43284;47.042;15.498;2022-07-21T14:41:00;3.42;;;1.92;;
57441;SDS011;43284;47.042;15.498;2022-07-21T14:43:28;2.63;;;2.03;;
57441;SDS011;43284;47.042;15.498;2022-07-21T14:45:57;3.83;;;1.80;;
57441;SDS011;43284;47.042;15.498;2022-07-21T14:48:24;2.75;;;1.60;;
57441;SDS011;43284;47.042;15.498;2022-07-21T14:50:54;3.88;;;2.10;;
57441;SDS011;43284;47.042;15.498;2022-07-21T14:53:21;3.20;;;1.60;;
57441;SDS011;43284;47.042;15.498;2022-07-21T14:55:49;6.15;;;2.00;;
57441;SDS011;43284;47.042;15.498;2022-07-21T14:58:16;2.45;;;1.95;;
57441;SDS011;43284;47.042;15.498;2022-07-21T15:00:44;3.10;;;1.63;;
57441;SDS011;43284;47.042;15.498;2022-07-21T15:03:13;2.10;;;1.70;;
57441;SDS011;43284;47.042;15.498;2022-07-21T15:05:41;6.57;;;1.90;;
57441;SDS011;43284;47.042;15.498;2022-07-21T15:08:10;2.83;;;1.75;;
57441;SDS011;43284;47.042;15.498;2022-07-21T15:10:38;2.65;;;2.15;;
57441;SDS011;43284;47.042;15.498;2022-07-21T15:13:07;2.03;;;1.67;;
57441;SDS011;43284;47.042;15.498;2022-07-21T15:15:35;4.85;;;1.77;;
57441;SDS011;43284;47.042;15.498;2022-07-21T15:18:02;5.22;;;1.70;;
57441;SDS011;43284;47.042;15.498;2022-07-21T15:20:30;6.88;;;2.25;;